createdAt,value
2022-08-01T00:00:39.862Z,13.35
2022-08-01T00:01:44.063Z,13.37
2022-08-01T00:02:45.918Z,13.38
2022-08-01T00:03:47.583Z,13.40
2022-08-01T00:04:49.262Z,13.43
2022-08-01T00:05:50.891Z,13.44
2022-08-01T00:06:52.558Z,13.43
2022-08-01T00:07:54.269Z,13.44
2022-08-01T00:08:56.334Z,13.44
2022-08-01T00:09:57.973Z,13.45
2022-08-01T00:11:02.781Z,13.46
2022-08-01T00:12:05.881Z,13.45
2022-08-01T00:13:07.523Z,13.44
2022-08-01T00:14:10.593Z,13.44
2022-08-01T00:15:15.080Z,13.42
2022-08-01T00:16:16.884Z,13.40
2022-08-01T00:17:18.630Z,13.38
2022-08-01T00:18:20.289Z,13.35
2022-08-01T00:19:21.942Z,13.31
2022-08-01T00:20:23.610Z,13.26
2022-08-01T00:21:25.294Z,13.21
2022-08-01T00:22:27.291Z,13.16
2022-08-01T00:23:28.979Z,13.12
2022-08-01T00:24:30.708Z,13.11
2022-08-01T00:25:33.955Z,13.09
2022-08-01T00:26:36.315Z,13.05
2022-08-01T00:27:38.103Z,13.01
2022-08-01T00:28:40.487Z,12.98
2022-08-01T00:30:09.801Z,12.97
2022-08-01T00:31:03.934Z,12.95
2022-08-01T00:32:06.169Z,12.94
2022-08-01T00:33:08.075Z,12.93
2022-08-01T00:34:09.741Z,12.91
2022-08-01T00:35:11.634Z,12.89
2022-08-01T00:36:13.459Z,12.88
2022-08-01T00:37:16.209Z,12.85
2022-08-01T00:38:17.918Z,12.83
2022-08-01T00:39:19.585Z,12.81
2022-08-01T00:40:21.337Z,12.80
2022-08-01T00:41:23.022Z,12.78
2022-08-01T00:42:24.771Z,12.76
2022-08-01T00:43:26.554Z,12.72
2022-08-01T00:44:28.299Z,12.71
2022-08-01T00:45:30.039Z,12.69
2022-08-01T00:46:32.406Z,12.67
2022-08-01T00:47:34.133Z,12.65
2022-08-01T00:48:35.992Z,12.65
2022-08-01T00:49:37.804Z,12.63
2022-08-01T00:50:39.821Z,12.62
2022-08-01T00:51:41.815Z,12.61
2022-08-01T00:52:51.526Z,12.60
2022-08-01T00:53:54.036Z,12.57
2022-08-01T00:54:56.817Z,12.54
2022-08-01T00:55:58.541Z,12.51
2022-08-01T00:57:01.071Z,12.50
2022-08-01T00:58:05.703Z,12.49
2022-08-01T00:59:09.468Z,12.48
2022-08-01T01:00:12.259Z,12.46
2022-08-01T01:01:14.162Z,12.44
2022-08-01T01:02:16.073Z,12.42
2022-08-01T01:03:17.801Z,12.40
2022-08-01T01:04:19.477Z,12.37
2022-08-01T01:05:21.792Z,12.35
2022-08-01T01:06:29.262Z,12.33
2022-08-01T01:07:49.947Z,12.31
2022-08-01T01:09:17.237Z,12.30
2022-08-01T01:10:22.902Z,12.29
2022-08-01T01:11:36.225Z,12.29
2022-08-01T01:12:53.190Z,12.29
2022-08-01T01:14:06.133Z,12.28
2022-08-01T01:15:12.651Z,12.27
2022-08-01T01:16:18.374Z,12.26
2022-08-01T01:17:31.244Z,12.26
2022-08-01T01:19:01.522Z,12.26
2022-08-01T01:20:06.875Z,12.25
2022-08-01T01:21:17.440Z,12.24
2022-08-01T01:22:47.224Z,12.24
2022-08-01T01:24:22.957Z,12.22
2022-08-01T01:25:50.811Z,12.22
2022-08-01T01:27:19.181Z,12.21
2022-08-01T01:29:22.529Z,12.21
2022-08-01T01:30:29.084Z,12.21
2022-08-01T01:31:38.596Z,12.21
2022-08-01T01:32:45.845Z,12.21
2022-08-01T01:33:50.644Z,12.20
2022-08-01T01:34:56.394Z,12.21
2022-08-01T01:36:04.277Z,12.23
2022-08-01T01:37:18.669Z,12.23
2022-08-01T01:38:34.784Z,12.24
2022-08-01T01:39:39.528Z,12.24
2022-08-01T01:40:49.865Z,12.25
2022-08-01T01:41:55.727Z,12.24
2022-08-01T01:42:58.370Z,12.23
2022-08-01T01:44:02.959Z,12.22
2022-08-01T01:45:08.318Z,12.23
2022-08-01T01:46:13.441Z,12.23
2022-08-01T01:47:18.089Z,12.22
2022-08-01T01:48:22.387Z,12.21
2022-08-01T01:49:27.909Z,12.20
2022-08-01T01:50:31.605Z,12.20
2022-08-01T01:51:34.579Z,12.22
2022-08-01T01:52:39.056Z,12.23
2022-08-01T01:53:42.590Z,12.23
2022-08-01T01:54:49.707Z,12.22
2022-08-01T01:55:54.678Z,12.21
2022-08-01T01:57:00.659Z,12.21
2022-08-01T01:58:02.686Z,12.21
2022-08-01T01:59:05.573Z,12.21
2022-08-01T02:00:09.529Z,12.21
2022-08-01T02:01:14.626Z,12.20
2022-08-01T02:02:18.745Z,12.17
2022-08-01T02:03:23.050Z,12.15
2022-08-01T02:04:28.081Z,12.14
2022-08-01T02:05:31.012Z,12.13
2022-08-01T02:06:34.577Z,12.13
2022-08-01T02:07:39.645Z,12.13
2022-08-01T02:08:44.928Z,12.13
2022-08-01T02:09:48.548Z,12.13
2022-08-01T02:11:13.058Z,12.13
2022-08-01T02:12:18.678Z,12.12
2022-08-01T02:13:21.414Z,12.13
2022-08-01T02:14:24.787Z,12.13
2022-08-01T02:15:29.043Z,12.11
2022-08-01T02:16:35.958Z,12.09
2022-08-01T02:17:44.663Z,12.07
2022-08-01T02:18:47.012Z,12.06
2022-08-01T02:19:49.193Z,12.06
2022-08-01T02:20:54.490Z,12.05
2022-08-01T02:22:08.908Z,12.04
2022-08-01T02:23:14.209Z,12.01
2022-08-01T02:24:30.606Z,12.02
2022-08-01T02:25:39.622Z,12.02
2022-08-01T02:27:07.647Z,12.04
2022-08-01T02:28:33.495Z,12.02
2022-08-01T02:29:43.024Z,12.03
2022-08-01T02:30:49.524Z,12.02
2022-08-01T02:31:55.609Z,12.01
2022-08-01T02:33:15.794Z,12.00
2022-08-01T02:34:20.779Z,11.98
2022-08-01T02:35:29.103Z,11.98
2022-08-01T02:36:36.285Z,11.98
2022-08-01T02:37:41.928Z,11.95
2022-08-01T02:38:48.027Z,11.93
2022-08-01T02:39:53.700Z,11.93
2022-08-01T02:41:00.826Z,11.92
2022-08-01T02:42:07.938Z,11.93
2022-08-01T02:43:11.809Z,11.93
2022-08-01T02:44:24.558Z,11.95
2022-08-01T02:45:27.826Z,11.96
2022-08-01T02:46:52.726Z,11.97
2022-08-01T02:48:02.808Z,11.99
2022-08-01T02:49:08.788Z,11.99
2022-08-01T02:50:13.459Z,12.00
2022-08-01T02:51:18.738Z,12.00
2022-08-01T02:52:24.205Z,12.01
2022-08-01T02:53:39.126Z,12.02
2022-08-01T02:54:51.088Z,12.03
2022-08-01T02:55:54.955Z,12.02
2022-08-01T02:56:58.477Z,12.01
2022-08-01T02:58:02.896Z,12.00
2022-08-01T02:59:10.165Z,11.98
2022-08-01T03:00:12.534Z,11.97
2022-08-01T03:01:19.972Z,11.96
2022-08-01T03:02:25.228Z,11.95
2022-08-01T03:03:27.266Z,11.94
2022-08-01T03:04:29.687Z,11.92
2022-08-01T03:05:33.966Z,11.90
2022-08-01T03:06:38.345Z,11.88
2022-08-01T03:07:42.688Z,11.85
2022-08-01T03:08:47.574Z,11.84
2022-08-01T03:09:51.677Z,11.82
2022-08-01T03:10:56.755Z,11.80
2022-08-01T03:12:05.539Z,11.78
2022-08-01T03:13:10.588Z,11.77
2022-08-01T03:14:15.245Z,11.76
2022-08-01T03:15:19.702Z,11.75
2022-08-01T03:16:25.211Z,11.75
2022-08-01T03:17:31.358Z,11.76
2022-08-01T03:18:36.081Z,11.76
2022-08-01T03:19:40.183Z,11.78
2022-08-01T03:20:44.510Z,11.80
2022-08-01T03:21:49.429Z,11.83
2022-08-01T03:22:54.408Z,11.86
2022-08-01T03:24:01.536Z,11.88
2022-08-01T03:25:04.526Z,11.88
2022-08-01T03:26:07.341Z,11.89
2022-08-01T03:27:10.111Z,11.89
2022-08-01T03:28:16.988Z,11.90
2022-08-01T03:29:26.478Z,11.91
2022-08-01T03:30:30.835Z,11.92
2022-08-01T03:31:36.307Z,11.93
2022-08-01T03:32:38.267Z,11.92
2022-08-01T03:33:40.008Z,11.91
2022-08-01T03:34:41.936Z,11.88
2022-08-01T03:35:55.231Z,11.87
2022-08-01T03:37:28.189Z,11.86
2022-08-01T03:38:36.573Z,11.87
2022-08-01T03:39:45.326Z,11.87
2022-08-01T03:41:12.696Z,11.88
2022-08-01T03:42:20.128Z,11.86
2022-08-01T03:43:37.613Z,11.87
2022-08-01T03:44:42.290Z,11.88
2022-08-01T03:45:54.201Z,11.90
2022-08-01T03:47:02.552Z,11.93
2022-08-01T03:48:14.224Z,11.95
2022-08-01T03:49:22.592Z,11.97
2022-08-01T03:50:26.055Z,11.97
2022-08-01T03:51:30.627Z,11.97
2022-08-01T03:52:35.910Z,11.99
2022-08-01T03:53:42.462Z,12.01
2022-08-01T03:54:54.433Z,12.03
2022-08-01T03:55:59.577Z,12.05
2022-08-01T03:57:02.875Z,12.05
2022-08-01T03:58:09.847Z,12.06
2022-08-01T03:59:13.059Z,12.08
2022-08-01T04:00:19.284Z,12.08
2022-08-01T04:01:21.940Z,12.07
2022-08-01T04:02:24.579Z,12.06
2022-08-01T04:03:26.996Z,12.05
2022-08-01T04:04:30.062Z,12.03
2022-08-01T04:05:32.379Z,12.02
2022-08-01T04:06:34.129Z,12.01
2022-08-01T04:07:40.224Z,12.01
2022-08-01T04:08:42.456Z,12.03
2022-08-01T04:09:44.269Z,12.05
2022-08-01T04:10:46.060Z,12.07
2022-08-01T04:11:48.482Z,12.11
2022-08-01T04:12:50.426Z,12.13
2022-08-01T04:13:54.158Z,12.18
2022-08-01T04:14:57.097Z,12.21
2022-08-01T04:15:58.729Z,12.23
2022-08-01T04:17:00.361Z,12.26
2022-08-01T04:18:02.065Z,12.30
2022-08-01T04:19:04.209Z,12.33
2022-08-01T04:20:06.444Z,12.34
2022-08-01T04:21:08.673Z,12.36
2022-08-01T04:22:16.560Z,12.36
2022-08-01T04:23:27.032Z,12.36
2022-08-01T04:24:32.651Z,12.37
2022-08-01T04:25:38.121Z,12.38
2022-08-01T04:26:42.712Z,12.39
2022-08-01T04:27:51.966Z,12.39
2022-08-01T04:28:56.388Z,12.42
2022-08-01T04:30:00.328Z,12.44
2022-08-01T04:31:06.614Z,12.47
2022-08-01T04:32:13.861Z,12.50
2022-08-01T04:33:18.854Z,12.52
2022-08-01T04:34:25.375Z,12.56
2022-08-01T04:36:01.888Z,12.60
2022-08-01T04:36:55.458Z,12.65
2022-08-01T04:38:00.321Z,12.70
2022-08-01T04:39:04.870Z,12.71
2022-08-01T04:40:09.540Z,12.72
2022-08-01T04:41:14.657Z,12.74
2022-08-01T04:42:17.217Z,12.76
2022-08-01T04:43:27.797Z,12.78
2022-08-01T04:44:32.578Z,12.81
2022-08-01T04:45:37.368Z,12.85
2022-08-01T04:46:41.311Z,12.90
2022-08-01T04:47:44.696Z,12.93
2022-08-01T04:48:47.194Z,12.96
2022-08-01T04:49:49.831Z,13.00
2022-08-01T04:50:52.577Z,13.04
2022-08-01T04:51:58.717Z,13.07
2022-08-01T04:53:00.392Z,13.10
2022-08-01T04:54:02.732Z,13.12
2022-08-01T04:55:07.176Z,13.15
2022-08-01T04:56:09.121Z,13.18
2022-08-01T04:57:10.830Z,13.21
2022-08-01T04:58:17.676Z,13.26
2022-08-01T04:59:39.650Z,13.30
2022-08-01T05:00:41.562Z,13.33
2022-08-01T05:01:43.251Z,13.37
2022-08-01T05:02:45.088Z,13.42
2022-08-01T05:03:46.762Z,13.46
2022-08-01T05:04:48.419Z,13.49
2022-08-01T05:05:50.080Z,13.51
2022-08-01T05:06:51.731Z,13.54
2022-08-01T05:07:53.386Z,13.58
2022-08-01T05:08:55.265Z,13.60
2022-08-01T05:09:56.940Z,13.64
2022-08-01T05:10:58.645Z,13.68
2022-08-01T05:12:02.868Z,13.73
2022-08-01T05:13:04.763Z,13.77
2022-08-01T05:14:07.576Z,13.82
2022-08-01T05:15:15.121Z,13.85
2022-08-01T05:16:17.950Z,13.89
2022-08-01T05:17:19.628Z,13.93
2022-08-01T05:18:26.421Z,13.97
2022-08-01T05:19:32.843Z,14.00
2022-08-01T05:20:34.604Z,14.04
2022-08-01T05:21:38.331Z,14.05
2022-08-01T05:22:40.460Z,14.06
2022-08-01T05:23:43.567Z,14.08
2022-08-01T05:24:45.472Z,14.10
2022-08-01T05:25:56.119Z,14.13
2022-08-01T05:27:00.891Z,14.20
2022-08-01T05:28:05.065Z,14.24
2022-08-01T05:29:07.859Z,14.28
2022-08-01T05:30:11.086Z,14.33
2022-08-01T05:31:12.739Z,14.36
2022-08-01T05:32:14.545Z,14.38
2022-08-01T05:33:16.219Z,14.40
2022-08-01T05:34:17.926Z,14.45
2022-08-01T05:35:19.577Z,14.49
2022-08-01T05:36:21.238Z,14.53
2022-08-01T05:37:22.911Z,14.56
2022-08-01T05:38:24.536Z,14.59
2022-08-01T05:39:26.214Z,14.62
2022-08-01T05:40:27.890Z,14.64
2022-08-01T05:41:29.696Z,14.67
2022-08-01T05:42:31.430Z,14.71
2022-08-01T05:43:33.080Z,14.76
2022-08-01T05:44:34.740Z,14.79
2022-08-01T05:45:36.418Z,14.82
2022-08-01T05:46:39.113Z,14.87
2022-08-01T05:47:42.843Z,14.91
2022-08-01T05:48:44.858Z,14.94
2022-08-01T05:49:47.008Z,14.96
2022-08-01T05:50:48.898Z,15.00
2022-08-01T05:51:50.566Z,15.04
2022-08-01T05:52:52.205Z,15.09
2022-08-01T05:53:54.406Z,15.15
2022-08-01T05:54:56.004Z,15.20
2022-08-01T05:55:57.702Z,15.24
2022-08-01T05:57:02.543Z,15.29
2022-08-01T05:58:04.462Z,15.35
2022-08-01T05:59:06.107Z,15.39
2022-08-01T06:00:08.512Z,15.42
2022-08-01T06:01:13.497Z,15.44
2022-08-01T06:02:15.288Z,15.46
2022-08-01T06:03:17.020Z,15.50
2022-08-01T06:04:18.763Z,15.52
2022-08-01T06:05:20.488Z,15.56
2022-08-01T06:06:25.312Z,15.58
2022-08-01T06:07:27.349Z,15.62
2022-08-01T06:08:29.555Z,15.68
2022-08-01T06:09:31.874Z,15.75
2022-08-01T06:10:33.765Z,15.82
2022-08-01T06:11:35.802Z,15.86
2022-08-01T06:12:37.939Z,15.89
2022-08-01T06:13:48.320Z,15.92
2022-08-01T06:14:50.580Z,15.95
2022-08-01T06:15:52.290Z,15.99
2022-08-01T06:16:54.070Z,16.03
2022-08-01T06:17:56.482Z,16.06
2022-08-01T06:18:58.135Z,16.07
2022-08-01T06:20:00.456Z,16.09
2022-08-01T06:21:02.103Z,16.10
2022-08-01T06:22:04.256Z,16.12
2022-08-01T06:23:22.464Z,16.13
2022-08-01T06:24:28.201Z,16.19
2022-08-01T06:25:30.406Z,16.22
2022-08-01T06:26:32.292Z,16.26
2022-08-01T06:27:36.407Z,16.30
2022-08-01T06:28:39.465Z,16.34
2022-08-01T06:29:41.182Z,16.38
2022-08-01T06:30:55.403Z,16.43
2022-08-01T06:31:57.057Z,16.49
2022-08-01T06:32:59.624Z,16.57
2022-08-01T06:34:01.407Z,16.63
2022-08-01T06:35:03.398Z,16.71
2022-08-01T06:36:05.166Z,16.76
2022-08-01T06:37:07.038Z,16.82
2022-08-01T06:38:09.504Z,16.87
2022-08-01T06:39:11.134Z,16.90
2022-08-01T06:40:17.188Z,16.95
2022-08-01T06:41:19.205Z,17.00
2022-08-01T06:42:20.870Z,17.03
2022-08-01T06:43:22.643Z,17.05
2022-08-01T06:44:24.289Z,17.07
2022-08-01T06:45:27.847Z,17.09
2022-08-01T06:46:32.555Z,17.12
2022-08-01T06:47:38.281Z,17.16
2022-08-01T06:48:40.366Z,17.20
2022-08-01T06:49:42.112Z,17.23
2022-08-01T06:50:43.766Z,17.26
2022-08-01T06:51:45.506Z,17.30
2022-08-01T06:52:47.231Z,17.35
2022-08-01T06:53:48.866Z,17.40
2022-08-01T06:54:50.793Z,17.47
2022-08-01T06:55:52.430Z,17.53
2022-08-01T06:56:54.052Z,17.59
2022-08-01T06:57:55.693Z,17.64
2022-08-01T06:59:01.753Z,17.67
2022-08-01T07:00:09.693Z,17.71
2022-08-01T07:01:11.477Z,17.77
2022-08-01T07:02:13.189Z,17.82
2022-08-01T07:03:14.938Z,17.86
2022-08-01T07:04:16.577Z,17.89
2022-08-01T07:05:18.530Z,17.91
2022-08-01T07:06:20.269Z,17.94
2022-08-01T07:07:22.004Z,17.98
2022-08-01T07:08:23.865Z,18.02
2022-08-01T07:09:25.665Z,18.07
2022-08-01T07:10:27.368Z,18.10
2022-08-01T07:11:29.005Z,18.14
2022-08-01T07:12:30.661Z,18.17
2022-08-01T07:13:44.076Z,18.18
2022-08-01T07:14:47.166Z,18.17
2022-08-01T07:15:48.806Z,18.19
2022-08-01T07:16:51.304Z,18.21
2022-08-01T07:17:53.261Z,18.22
2022-08-01T07:18:54.945Z,18.25
2022-08-01T07:19:57.808Z,18.27
2022-08-01T07:20:59.649Z,18.32
2022-08-01T07:22:01.322Z,18.36
2022-08-01T07:23:06.095Z,18.43
2022-08-01T07:24:14.486Z,18.45
2022-08-01T07:25:16.866Z,18.47
2022-08-01T07:26:18.541Z,18.51
2022-08-01T07:27:25.540Z,18.55
2022-08-01T07:28:29.343Z,18.59
2022-08-01T07:29:31.017Z,18.64
2022-08-01T07:30:32.672Z,18.69
2022-08-01T07:31:34.337Z,18.76
2022-08-01T07:32:36.062Z,18.83
2022-08-01T07:33:47.787Z,18.87
2022-08-01T07:34:51.220Z,18.92
2022-08-01T07:35:52.934Z,18.98
2022-08-01T07:36:54.649Z,19.05
2022-08-01T07:37:56.315Z,19.12
2022-08-01T07:38:57.978Z,19.16
2022-08-01T07:40:00.108Z,19.21
2022-08-01T07:41:01.823Z,19.23
2022-08-01T07:42:07.331Z,19.24
2022-08-01T07:43:10.157Z,19.22
2022-08-01T07:44:11.810Z,19.23
2022-08-01T07:45:14.185Z,19.29
2022-08-01T07:46:17.170Z,19.34
2022-08-01T07:47:25.264Z,19.42
2022-08-01T07:48:28.030Z,19.47
2022-08-01T07:49:30.032Z,19.54
2022-08-01T07:50:34.165Z,19.60
2022-08-01T07:51:36.010Z,19.68
2022-08-01T07:52:37.710Z,19.75
2022-08-01T07:53:39.428Z,19.83
2022-08-01T07:54:41.086Z,19.90
2022-08-01T07:55:43.302Z,19.96
2022-08-01T07:56:47.741Z,20.04
2022-08-01T07:57:49.593Z,20.09
2022-08-01T07:58:51.459Z,20.11
2022-08-01T07:59:53.305Z,20.16
2022-08-01T08:00:54.982Z,20.18
2022-08-01T08:01:56.755Z,20.15
2022-08-01T08:03:00.276Z,20.16
2022-08-01T08:04:02.228Z,20.19
2022-08-01T08:05:04.843Z,20.25
2022-08-01T08:06:07.383Z,20.34
2022-08-01T08:07:09.475Z,20.41
2022-08-01T08:08:12.444Z,20.44
2022-08-01T08:09:15.678Z,20.49
2022-08-01T08:10:17.504Z,20.53
2022-08-01T08:11:19.140Z,20.56
2022-08-01T08:12:28.477Z,20.58
2022-08-01T08:13:31.598Z,20.59
2022-08-01T08:14:33.432Z,20.59
2022-08-01T08:15:35.236Z,20.61
2022-08-01T08:16:36.941Z,20.61
2022-08-01T08:17:38.683Z,20.61
2022-08-01T08:18:40.421Z,20.62
2022-08-01T08:19:42.121Z,20.62
2022-08-01T08:20:44.714Z,20.62
2022-08-01T08:21:46.434Z,20.67
2022-08-01T08:22:48.098Z,20.73
2022-08-01T08:24:08.092Z,20.78
2022-08-01T08:25:12.525Z,20.85
2022-08-01T08:26:14.164Z,20.89
2022-08-01T08:27:16.171Z,20.89
2022-08-01T08:28:17.967Z,20.88
2022-08-01T08:29:20.175Z,20.89
2022-08-01T08:30:22.000Z,20.92
2022-08-01T08:31:25.621Z,20.97
2022-08-01T08:32:45.964Z,21.02
2022-08-01T08:33:47.606Z,21.03
2022-08-01T08:34:49.282Z,21.04
2022-08-01T08:35:53.652Z,21.09
2022-08-01T08:36:58.866Z,21.18
2022-08-01T08:38:00.839Z,21.30
2022-08-01T08:39:04.333Z,21.40
2022-08-01T08:40:07.447Z,21.48
2022-08-01T08:41:10.628Z,21.53
2022-08-01T08:42:12.913Z,21.56
2022-08-01T08:43:17.225Z,21.57
2022-08-01T08:44:21.068Z,21.58
2022-08-01T08:45:23.162Z,21.57
2022-08-01T08:46:47.562Z,21.54
2022-08-01T08:47:51.030Z,21.55
2022-08-01T08:48:53.469Z,21.61
2022-08-01T08:49:57.493Z,21.70
2022-08-01T08:51:02.353Z,21.78
2022-08-01T08:52:08.899Z,21.85
2022-08-01T08:53:18.363Z,21.89
2022-08-01T08:54:30.851Z,21.95
2022-08-01T08:55:33.143Z,22.00
2022-08-01T08:56:56.102Z,22.05
2022-08-01T08:57:58.834Z,22.12
2022-08-01T08:59:02.125Z,22.21
2022-08-01T09:00:04.652Z,22.33
2022-08-01T09:01:08.061Z,22.46
2022-08-01T09:02:10.799Z,22.57
2022-08-01T09:03:13.290Z,22.65
2022-08-01T09:04:15.513Z,22.73
2022-08-01T09:05:19.833Z,22.80
2022-08-01T09:06:21.753Z,22.84
2022-08-01T09:07:26.333Z,22.81
2022-08-01T09:08:28.045Z,22.76
2022-08-01T09:09:29.723Z,22.69
2022-08-01T09:10:31.401Z,22.62
2022-08-01T09:11:34.901Z,22.60
2022-08-01T09:12:38.562Z,22.56
2022-08-01T09:13:45.279Z,22.54
2022-08-01T09:14:50.647Z,22.56
2022-08-01T09:15:54.974Z,22.61
2022-08-01T09:17:11.799Z,22.69
2022-08-01T09:18:41.516Z,22.78
2022-08-01T09:19:50.255Z,22.83
2022-08-01T09:20:51.970Z,22.84
2022-08-01T09:22:02.719Z,22.84
2022-08-01T09:23:04.742Z,22.83
2022-08-01T09:24:18.715Z,22.85
2022-08-01T09:25:51.529Z,22.93
2022-08-01T09:26:55.129Z,22.94
2022-08-01T09:28:07.281Z,22.93
2022-08-01T09:29:34.702Z,22.94
2022-08-01T09:30:40.782Z,23.06
2022-08-01T09:31:47.713Z,23.13
2022-08-01T09:32:55.845Z,23.19
2022-08-01T09:34:05.067Z,23.26
2022-08-01T09:35:36.241Z,23.37
2022-08-01T09:36:45.746Z,23.45
2022-08-01T09:37:47.542Z,23.54
2022-08-01T09:38:51.550Z,23.57
2022-08-01T09:39:58.421Z,23.60
2022-08-01T09:41:01.873Z,23.64
2022-08-01T09:42:28.343Z,23.67
2022-08-01T09:43:32.759Z,23.68
2022-08-01T09:44:44.757Z,23.66
2022-08-01T09:45:49.132Z,23.64
2022-08-01T09:46:55.044Z,23.63
2022-08-01T09:47:56.815Z,23.64
2022-08-01T09:49:02.271Z,23.69
2022-08-01T09:50:11.235Z,23.76
2022-08-01T09:51:13.971Z,23.84
2022-08-01T09:52:35.630Z,23.96
2022-08-01T09:53:43.452Z,24.04
2022-08-01T09:55:00.690Z,24.07
2022-08-01T09:56:13.520Z,23.97
2022-08-01T09:57:18.899Z,23.82
2022-08-01T09:58:21.614Z,23.73
2022-08-01T09:59:56.748Z,23.72
2022-08-01T10:01:01.155Z,23.79
2022-08-01T10:02:02.825Z,23.85
2022-08-01T10:03:25.399Z,23.86
2022-08-01T10:04:28.505Z,23.91
2022-08-01T10:05:37.158Z,23.98
2022-08-01T10:06:43.563Z,24.06
2022-08-01T10:08:07.943Z,24.12
2022-08-01T10:09:10.291Z,24.16
2022-08-01T10:10:16.054Z,24.18
2022-08-01T10:11:18.723Z,24.19
2022-08-01T10:12:24.658Z,24.18
2022-08-01T10:13:36.571Z,24.18
2022-08-01T10:14:41.007Z,24.23
2022-08-01T10:15:43.551Z,24.27
2022-08-01T10:16:53.621Z,24.31
2022-08-01T10:18:02.170Z,24.34
2022-08-01T10:19:14.567Z,24.37
2022-08-01T10:20:30.512Z,24.37
2022-08-01T10:21:56.713Z,24.39
2022-08-01T10:23:05.844Z,24.46
2022-08-01T10:24:12.105Z,24.52
2022-08-01T10:25:18.800Z,24.61
2022-08-01T10:26:41.953Z,24.69
2022-08-01T10:27:46.484Z,24.73
2022-08-01T10:28:49.844Z,24.73
2022-08-01T10:30:05.140Z,24.72
2022-08-01T10:31:12.582Z,24.72
2022-08-01T10:32:18.289Z,24.75
2022-08-01T10:33:51.200Z,24.72
2022-08-01T10:34:46.480Z,24.74
2022-08-01T10:35:48.635Z,24.81
2022-08-01T10:36:50.636Z,24.85
2022-08-01T10:37:57.487Z,24.89
2022-08-01T10:38:59.560Z,24.97
2022-08-01T10:40:28.695Z,25.03
2022-08-01T10:41:27.394Z,25.10
2022-08-01T10:42:30.322Z,25.17
2022-08-01T10:43:32.213Z,25.23
2022-08-01T10:44:35.022Z,25.38
2022-08-01T10:45:37.037Z,25.52
2022-08-01T10:46:40.722Z,25.59
2022-08-01T10:48:14.270Z,25.69
2022-08-01T10:49:21.274Z,25.83
2022-08-01T10:50:34.695Z,25.94
2022-08-01T10:51:51.267Z,26.03
2022-08-01T10:53:15.256Z,26.03
2022-08-01T10:54:27.836Z,26.02
2022-08-01T10:55:29.603Z,26.05
2022-08-01T10:56:41.715Z,26.14
2022-08-01T10:57:52.639Z,26.20
2022-08-01T10:59:06.088Z,26.21
2022-08-01T11:00:09.339Z,26.24
2022-08-01T11:01:30.450Z,26.28
2022-08-01T11:02:41.658Z,26.37
2022-08-01T11:03:58.369Z,26.52
2022-08-01T11:05:14.332Z,26.65
2022-08-01T11:06:18.611Z,26.71
2022-08-01T11:07:35.564Z,26.65
2022-08-01T11:08:39.241Z,26.56
2022-08-01T11:09:50.849Z,26.50
2022-08-01T11:11:02.228Z,26.44
2022-08-01T11:12:08.170Z,26.50
2022-08-01T11:13:15.479Z,26.59
2022-08-01T11:14:22.677Z,26.60
2022-08-01T11:15:31.499Z,26.63
2022-08-01T11:16:36.366Z,26.64
2022-08-01T11:17:48.466Z,26.61
2022-08-01T11:18:54.191Z,26.62
2022-08-01T11:20:19.266Z,26.72
2022-08-01T11:21:58.918Z,26.85
2022-08-01T11:22:58.527Z,26.84
2022-08-01T11:24:00.227Z,26.85
2022-08-01T11:25:02.260Z,26.85
2022-08-01T11:26:06.040Z,26.82
2022-08-01T11:27:33.553Z,26.69
2022-08-01T11:28:36.856Z,26.48
2022-08-01T11:29:42.229Z,26.37
2022-08-01T11:30:49.450Z,26.25
2022-08-01T11:31:52.739Z,26.10
2022-08-01T11:33:12.809Z,26.00
2022-08-01T11:34:16.107Z,25.93
2022-08-01T11:35:21.699Z,25.91
2022-08-01T11:36:56.760Z,25.88
2022-08-01T11:37:45.616Z,25.95
2022-08-01T11:38:49.581Z,26.13
2022-08-01T11:40:24.981Z,26.33
2022-08-01T11:41:39.038Z,26.70
2022-08-01T11:42:41.079Z,26.85
2022-08-01T11:44:00.715Z,26.86
2022-08-01T11:45:04.302Z,26.71
2022-08-01T11:46:06.823Z,26.67
2022-08-01T11:47:11.662Z,26.77
2022-08-01T11:48:27.582Z,26.88
2022-08-01T11:49:39.330Z,26.99
2022-08-01T11:50:42.177Z,27.06
2022-08-01T11:51:44.349Z,27.06
2022-08-01T11:52:47.129Z,27.06
2022-08-01T11:53:50.408Z,27.02
2022-08-01T11:54:56.966Z,26.89
2022-08-01T11:56:00.702Z,26.75
2022-08-01T11:57:06.156Z,26.67
2022-08-01T11:58:22.549Z,26.68
2022-08-01T11:59:38.025Z,26.66
2022-08-01T12:00:43.962Z,26.69
2022-08-01T12:01:49.098Z,26.71
2022-08-01T12:03:00.213Z,26.72
2022-08-01T12:04:02.210Z,26.74
2022-08-01T12:05:11.878Z,26.72
2022-08-01T12:06:13.994Z,26.64
2022-08-01T12:07:16.368Z,26.56
2022-08-01T12:08:34.198Z,26.62
2022-08-01T12:09:35.831Z,26.71
2022-08-01T12:10:49.409Z,26.92
2022-08-01T12:11:51.698Z,27.35
2022-08-01T12:13:00.780Z,27.65
2022-08-01T12:14:02.657Z,27.89
2022-08-01T12:15:09.898Z,28.06
2022-08-01T12:16:12.308Z,28.34
2022-08-01T12:17:14.140Z,28.62
2022-08-01T12:18:15.949Z,28.92
2022-08-01T12:19:25.594Z,29.10
2022-08-01T12:20:31.204Z,29.19
2022-08-01T12:21:33.480Z,29.24
2022-08-01T12:22:35.361Z,29.34
2022-08-01T12:23:36.989Z,29.26
2022-08-01T12:24:41.926Z,29.17
2022-08-01T12:25:48.266Z,29.07
2022-08-01T12:26:49.938Z,28.92
2022-08-01T12:27:56.000Z,28.85
2022-08-01T12:28:58.368Z,28.94
2022-08-01T12:30:02.254Z,29.09
2022-08-01T12:31:04.089Z,29.31
2022-08-01T12:32:27.962Z,29.56
2022-08-01T12:33:37.214Z,29.84
2022-08-01T12:34:39.064Z,30.01
2022-08-01T12:35:42.617Z,30.20
2022-08-01T12:36:45.071Z,30.39
2022-08-01T12:37:55.573Z,30.59
2022-08-01T12:39:00.275Z,30.75
2022-08-01T12:40:10.493Z,30.71
2022-08-01T12:41:12.663Z,30.62
2022-08-01T12:42:15.709Z,30.58
2022-08-01T12:43:27.907Z,30.56
2022-08-01T12:44:32.058Z,30.57
2022-08-01T12:45:40.671Z,30.40
2022-08-01T12:46:56.591Z,30.07
2022-08-01T12:48:00.567Z,29.99
2022-08-01T12:49:02.693Z,30.06
2022-08-01T12:50:08.645Z,30.23
2022-08-01T12:51:12.626Z,30.38
2022-08-01T12:52:15.912Z,30.64
2022-08-01T12:53:19.701Z,31.02
2022-08-01T12:54:25.781Z,31.33
2022-08-01T12:55:34.385Z,31.45
2022-08-01T12:56:37.072Z,31.58
2022-08-01T12:57:42.722Z,31.71
2022-08-01T12:58:44.472Z,31.74
2022-08-01T12:59:46.289Z,31.82
2022-08-01T13:01:02.679Z,32.00
2022-08-01T13:02:09.840Z,32.11
2022-08-01T13:03:18.006Z,32.09
2022-08-01T13:04:20.855Z,31.97
2022-08-01T13:05:25.859Z,31.77
2022-08-01T13:06:31.433Z,31.60
2022-08-01T13:07:45.607Z,31.43
2022-08-01T13:08:47.645Z,31.21
2022-08-01T13:09:53.008Z,30.95
2022-08-01T13:11:03.097Z,30.61
2022-08-01T13:12:11.132Z,30.24
2022-08-01T13:13:22.155Z,29.91
2022-08-01T13:14:30.692Z,29.53
2022-08-01T13:15:35.853Z,29.28
2022-08-01T13:16:56.710Z,29.06
2022-08-01T13:18:01.562Z,28.88
2022-08-01T13:19:03.330Z,28.73
2022-08-01T13:20:06.224Z,28.60
2022-08-01T13:21:12.023Z,28.44
2022-08-01T13:22:13.729Z,28.31
2022-08-01T13:23:22.736Z,28.24
2022-08-01T13:24:40.196Z,28.14
2022-08-01T13:26:08.542Z,28.03
2022-08-01T13:27:24.805Z,27.84
2022-08-01T13:28:28.309Z,27.71
2022-08-01T13:29:33.752Z,27.63
2022-08-01T13:30:35.450Z,27.61
2022-08-01T13:31:39.097Z,27.51
2022-08-01T13:32:41.071Z,27.35
2022-08-01T13:33:54.051Z,27.18
2022-08-01T13:35:03.958Z,26.92
2022-08-01T13:36:05.844Z,26.73
2022-08-01T13:37:07.514Z,26.64
2022-08-01T13:38:09.355Z,26.61
2022-08-01T13:39:29.702Z,26.62
2022-08-01T13:40:31.574Z,26.68
2022-08-01T13:41:35.410Z,26.74
2022-08-01T13:42:38.556Z,26.81
2022-08-01T13:43:58.979Z,26.87
2022-08-01T13:45:03.694Z,26.88
2022-08-01T13:46:05.580Z,26.87
2022-08-01T13:47:15.139Z,26.85
2022-08-01T13:48:19.778Z,26.82
2022-08-01T13:49:22.881Z,26.78
2022-08-01T13:50:24.799Z,26.73
2022-08-01T13:51:26.480Z,26.72
2022-08-01T13:52:28.266Z,26.75
2022-08-01T13:53:30.040Z,26.89
2022-08-01T13:54:32.644Z,27.11
2022-08-01T13:55:35.521Z,27.29
2022-08-01T13:56:37.456Z,27.37
2022-08-01T13:57:39.229Z,27.39
2022-08-01T13:58:40.916Z,27.41
2022-08-01T13:59:42.577Z,27.42
2022-08-01T14:00:44.602Z,27.39
2022-08-01T14:01:47.555Z,27.39
2022-08-01T14:02:49.349Z,27.38
2022-08-01T14:03:52.181Z,27.35
2022-08-01T14:04:56.565Z,27.31
2022-08-01T14:05:58.679Z,27.30
2022-08-01T14:07:04.294Z,27.29
2022-08-01T14:08:11.599Z,27.30
2022-08-01T14:09:17.804Z,27.33
2022-08-01T14:10:20.775Z,27.38